createdAt,value
2017-11-22T00:00:03.725Z,41.52
2017-11-22T00:01:12.557Z,40.56
2017-11-22T00:02:21.537Z,41.04
2017-11-22T00:03:30.366Z,41.04
2017-11-22T00:04:39.199Z,40.37
2017-11-22T00:05:48.317Z,40.94
2017-11-22T00:06:57.148Z,41.72
2017-11-22T00:08:06.137Z,42.85
2017-11-22T00:09:14.962Z,43.32
2017-11-22T00:10:24.240Z,42.94
2017-11-22T00:11:33.269Z,43.61
2017-11-22T00:12:42.100Z,43.13
2017-11-22T00:13:51.333Z,42.08
2017-11-22T00:15:00.161Z,43.13
2017-11-22T00:16:08.997Z,44.85
2017-11-22T00:17:17.822Z,43.8
2017-11-22T00:18:26.657Z,44.18
2017-11-22T00:19:35.787Z,43.99
2017-11-22T00:20:44.615Z,44.27
2017-11-22T00:21:53.448Z,45.32
2017-11-22T00:23:02.327Z,44.85
2017-11-22T00:24:11.392Z,44.94
2017-11-22T00:25:20.527Z,45.04
2017-11-22T00:26:29.351Z,44.94
2017-11-22T00:27:38.180Z,45.42
2017-11-22T00:28:47.011Z,45.51
2017-11-22T00:29:56.119Z,45.8
2017-11-22T00:31:05.581Z,44.75
2017-11-22T00:32:14.409Z,45.23
2017-11-22T00:33:23.242Z,44.37
2017-11-22T00:34:32.073Z,44.75
2017-11-22T00:35:40.902Z,44.37
2017-11-22T00:36:49.833Z,43.99
2017-11-22T00:37:58.663Z,42.85
2017-11-22T00:39:07.492Z,43.23
2017-11-22T00:40:16.326Z,42.66
2017-11-22T00:41:25.156Z,42.08
2017-11-22T00:42:33.988Z,41.99
2017-11-22T00:43:42.812Z,41.71
2017-11-22T00:44:51.642Z,41.71
2017-11-22T00:46:00.471Z,41.61
2017-11-22T00:47:09.299Z,41.13
2017-11-22T00:48:18.658Z,39.99
2017-11-22T00:49:27.489Z,40.37
2017-11-22T00:50:36.316Z,40.56
2017-11-22T00:51:45.145Z,39.8
2017-11-22T00:52:53.976Z,40.09
2017-11-22T00:54:02.853Z,40.09
2017-11-22T00:55:11.683Z,39.7
2017-11-22T00:56:20.511Z,40.09
2017-11-22T00:57:29.341Z,40.09
2017-11-22T00:58:38.172Z,39.42
2017-11-22T00:59:47.154Z,38.95
2017-11-22T01:00:55.985Z,39.14
2017-11-22T01:02:04.814Z,39.04
2017-11-22T01:03:13.644Z,37.8
2017-11-22T01:04:22.477Z,38.47
2017-11-22T01:05:31.460Z,37.52
2017-11-22T01:06:40.295Z,37.8
2017-11-22T01:07:49.133Z,38.18
2017-11-22T01:08:57.961Z,38.18
2017-11-22T01:10:07.072Z,37.88
2017-11-22T01:11:16.202Z,37.9
2017-11-22T01:12:25.032Z,37.69
2017-11-22T01:13:33.869Z,37.69
2017-11-22T01:14:42.692Z,37.97
2017-11-22T01:15:51.530Z,37.78
2017-11-22T01:17:00.785Z,37.97
2017-11-22T01:18:09.616Z,38.18
2017-11-22T01:19:18.445Z,37.69
2017-11-22T01:20:27.275Z,37.69
2017-11-22T01:21:36.104Z,37.59
2017-11-22T01:22:44.986Z,37.78
2017-11-22T01:23:53.814Z,37.69
2017-11-22T01:25:02.934Z,37.78
2017-11-22T01:26:11.761Z,36.93
2017-11-22T01:27:20.591Z,36.83
2017-11-22T01:28:29.574Z,37.12
2017-11-22T01:29:38.403Z,37.02
2017-11-22T01:30:47.230Z,36.83
2017-11-22T01:31:56.060Z,36.74
2017-11-22T01:33:04.894Z,36.64
2017-11-22T01:34:13.724Z,37.12
2017-11-22T01:35:22.554Z,37.12
2017-11-22T01:36:31.379Z,37.02
2017-11-22T01:37:40.210Z,36.83
2017-11-22T01:38:49.319Z,36.35
2017-11-22T01:39:58.149Z,36.07
2017-11-22T01:41:06.980Z,36.45
2017-11-22T01:42:15.811Z,36.16
2017-11-22T01:43:24.639Z,35.5
2017-11-22T01:44:33.469Z,35.21
2017-11-22T01:45:42.628Z,34.64
2017-11-22T01:46:51.459Z,34.55
2017-11-22T01:48:00.287Z,34.64
2017-11-22T01:49:09.128Z,33.88
2017-11-22T01:50:17.958Z,34.36
2017-11-22T01:51:27.032Z,33.69
2017-11-22T01:52:36.152Z,33.4
2017-11-22T01:53:44.986Z,33.12
2017-11-22T01:54:54.098Z,32.93
2017-11-22T01:56:02.926Z,32.83
2017-11-22T01:57:11.857Z,32.74
2017-11-22T01:58:20.689Z,32.26
2017-11-22T01:59:29.517Z,31.88
2017-11-22T02:00:38.347Z,31.98
2017-11-22T02:01:47.176Z,31.69
2017-11-22T02:02:56.155Z,31.79
2017-11-22T02:04:04.989Z,31.69
2017-11-22T02:05:13.812Z,31.4
2017-11-22T02:06:22.638Z,31.21
2017-11-22T02:07:31.467Z,31.02
2017-11-22T02:08:40.445Z,31.02
2017-11-22T02:09:49.280Z,30.65
2017-11-22T02:10:58.099Z,30.07
2017-11-22T02:12:06.930Z,30.07
2017-11-22T02:13:15.760Z,28.08
2017-11-22T02:14:24.594Z,27.6
2017-11-22T02:15:33.416Z,27.31
2017-11-22T02:16:42.528Z,26.55
2017-11-22T02:17:51.357Z,26.93
2017-11-22T02:19:00.188Z,27.12
2017-11-22T02:20:09.399Z,26.84
2017-11-22T02:21:18.244Z,26.55
2017-11-22T02:22:27.065Z,26.36
2017-11-22T02:23:35.895Z,26.93
2017-11-22T02:24:44.725Z,27.31
2017-11-22T02:25:53.844Z,27.6
2017-11-22T02:27:02.674Z,26.74
2017-11-22T02:28:11.504Z,26.93
2017-11-22T02:29:20.332Z,26.84
2017-11-22T02:30:29.167Z,27.5
2017-11-22T02:31:38.401Z,27.5
2017-11-22T02:32:47.226Z,27.31
2017-11-22T02:33:56.344Z,27.41
2017-11-22T02:35:05.453Z,27.22
2017-11-22T02:36:14.286Z,27.22
2017-11-22T02:37:23.637Z,27.79
2017-11-22T02:38:32.466Z,27.98
2017-11-22T02:39:41.296Z,27.41
2017-11-22T02:40:50.126Z,27.88
2017-11-22T02:41:58.956Z,28.36
2017-11-22T02:43:08.036Z,28.36
2017-11-22T02:44:16.866Z,28.17
2017-11-22T02:45:25.696Z,28.36
2017-11-22T02:46:34.523Z,28.08
2017-11-22T02:47:43.352Z,28.17
2017-11-22T02:48:52.562Z,28.27
2017-11-22T02:50:01.391Z,28.08
2017-11-22T02:51:10.507Z,28.74
2017-11-22T02:52:19.333Z,29.22
2017-11-22T02:53:28.169Z,29.22
2017-11-22T02:54:37.489Z,29.79
2017-11-22T02:55:46.320Z,29.5
2017-11-22T02:56:55.150Z,29.41
2017-11-22T02:58:03.977Z,29.31
2017-11-22T02:59:12.806Z,29.79
2017-11-22T03:00:21.839Z,29.31
2017-11-22T03:01:30.949Z,29.12
2017-11-22T03:02:39.772Z,29.22
2017-11-22T03:03:48.600Z,30.26
2017-11-22T03:04:57.430Z,30.83
2017-11-22T03:06:06.259Z,31.4
2017-11-22T03:07:15.087Z,31.88
2017-11-22T03:08:23.915Z,31.21
2017-11-22T03:09:32.747Z,32.74
2017-11-22T03:10:41.574Z,32.64
2017-11-22T03:11:50.680Z,33.03
2017-11-22T03:12:59.509Z,32.93
2017-11-22T03:14:08.358Z,33.22
2017-11-22T03:15:17.170Z,34.45
2017-11-22T03:16:26.277Z,34.55
2017-11-22T03:17:35.408Z,33.31
2017-11-22T03:18:44.520Z,34.45
2017-11-22T03:19:53.349Z,34.36
2017-11-22T03:21:02.179Z,36.45
2017-11-22T03:22:11.287Z,36.55
2017-11-22T03:23:20.396Z,36.45
2017-11-22T03:24:29.501Z,35.97
2017-11-22T03:25:38.617Z,36.45
2017-11-22T03:26:47.728Z,36.83
2017-11-22T03:27:56.559Z,36.74
2017-11-22T03:29:05.820Z,37.02
2017-11-22T03:30:14.651Z,38.07
2017-11-22T03:31:23.496Z,37.78
2017-11-22T03:32:32.321Z,37.88
2017-11-22T03:33:41.426Z,37.02
2017-11-22T03:34:50.355Z,37.49
2017-11-22T03:35:59.184Z,37.21
2017-11-22T03:37:08.016Z,38.17
2017-11-22T03:38:17.124Z,38.73
2017-11-22T03:39:26.508Z,38.26
2017-11-22T03:40:35.339Z,38.92
2017-11-22T03:41:44.172Z,37.78
2017-11-22T03:42:53.278Z,38.35
2017-11-22T03:44:02.106Z,39.02
2017-11-22T03:45:10.937Z,38.07
2017-11-22T03:46:19.815Z,38.83
2017-11-22T03:47:28.646Z,38.45
2017-11-22T03:48:37.474Z,38.07
2017-11-22T03:49:46.302Z,38.83
2017-11-22T03:50:55.129Z,39.12
2017-11-22T03:52:03.961Z,40.64
2017-11-22T03:53:12.788Z,41.3
2017-11-22T03:54:21.621Z,41.21
2017-11-22T03:55:30.452Z,41.3
2017-11-22T03:56:39.280Z,43.3
2017-11-22T03:57:48.157Z,43.78
2017-11-22T03:58:56.990Z,43.11
2017-11-22T04:00:05.869Z,43.11
2017-11-22T04:01:14.700Z,42.83
2017-11-22T04:02:23.533Z,43.11
2017-11-22T04:03:32.642Z,44.16
2017-11-22T04:04:41.469Z,43.87
2017-11-22T04:05:50.300Z,43.97
2017-11-22T04:06:59.409Z,43.97
2017-11-22T04:08:08.237Z,45.01
2017-11-22T04:09:17.119Z,44.92
2017-11-22T04:10:25.949Z,44.92
2017-11-22T04:11:34.980Z,44.92
2017-11-22T04:12:43.811Z,45.49
2017-11-22T04:13:52.639Z,45.68
2017-11-22T04:15:01.620Z,46.44
2017-11-22T04:16:10.450Z,46.92
2017-11-22T04:17:19.279Z,45.4
2017-11-22T04:18:28.110Z,46.35
2017-11-22T04:19:36.945Z,45.68
2017-11-22T04:20:45.768Z,45.3
2017-11-22T04:21:54.599Z,45.68
2017-11-22T04:23:03.428Z,45.99
2017-11-22T04:24:12.259Z,46.54
2017-11-22T04:25:21.090Z,46.44
2017-11-22T04:26:30.198Z,46.44
2017-11-22T04:27:39.027Z,46.44
2017-11-22T04:28:48.146Z,45.21
2017-11-22T04:29:56.973Z,45.4
2017-11-22T04:31:06.086Z,45.78
2017-11-22T04:32:15.065Z,45.68
2017-11-22T04:33:23.897Z,45.01
2017-11-22T04:34:32.727Z,44.92
2017-11-22T04:35:41.556Z,44.45
2017-11-22T04:36:50.385Z,44.45
2017-11-22T04:37:59.263Z,44.06
2017-11-22T04:39:08.092Z,43.11
2017-11-22T04:40:16.924Z,43.11
2017-11-22T04:41:25.758Z,42.83
2017-11-22T04:42:34.582Z,42.25
2017-11-22T04:43:43.814Z,41.59
2017-11-22T04:44:52.642Z,41.88
2017-11-22T04:46:01.471Z,41.59
2017-11-22T04:47:10.299Z,41.49
2017-11-22T04:48:19.128Z,41.11
2017-11-22T04:49:28.008Z,40.83
2017-11-22T04:50:36.836Z,40.83
2017-11-22T04:51:45.667Z,40.45
2017-11-22T04:52:54.497Z,40.45
2017-11-22T04:54:03.325Z,40.35
2017-11-22T04:55:12.155Z,40.45
2017-11-22T04:56:21.536Z,40.35
2017-11-22T04:57:30.366Z,40.06
2017-11-22T04:58:39.196Z,40.45
2017-11-22T04:59:48.029Z,39.97
2017-11-22T05:00:57.107Z,39.97
2017-11-22T05:02:05.938Z,40.06
2017-11-22T05:03:14.769Z,40.26
2017-11-22T05:04:24.152Z,40.26
2017-11-22T05:05:32.980Z,39.97
2017-11-22T05:06:41.809Z,39.97
2017-11-22T05:07:50.636Z,39.97
2017-11-22T05:08:59.464Z,39.87
2017-11-22T05:10:08.339Z,39.78
2017-11-22T05:11:17.122Z,39.78
2017-11-22T05:12:26.052Z,39.78
2017-11-22T05:13:34.884Z,39.87
2017-11-22T05:14:43.991Z,39.87
2017-11-22T05:15:52.823Z,39.87
2017-11-22T05:17:01.654Z,39.59
2017-11-22T05:18:10.763Z,39.69
2017-11-22T05:19:19.592Z,39.69
2017-11-22T05:20:28.419Z,38.83
2017-11-22T05:21:37.247Z,39.78
2017-11-22T05:22:46.078Z,39.21
2017-11-22T05:23:55.061Z,39.4
2017-11-22T05:25:03.888Z,39.87
2017-11-22T05:26:12.716Z,39.5
2017-11-22T05:27:21.545Z,39.02
2017-11-22T05:28:30.376Z,38.83
2017-11-22T05:29:39.208Z,38.26
2017-11-22T05:30:48.035Z,37.88
2017-11-22T05:31:56.865Z,37.69
2017-11-22T05:33:05.698Z,38.07
2017-11-22T05:34:14.529Z,37.69
2017-11-22T05:35:23.461Z,37.49
2017-11-22T05:36:32.288Z,37.69
2017-11-22T05:37:41.126Z,37.21
2017-11-22T05:38:49.943Z,37.3
2017-11-22T05:39:58.871Z,37.21
2017-11-22T05:41:08.093Z,36.74
2017-11-22T05:42:16.924Z,37.3
2017-11-22T05:43:25.751Z,36.64
2017-11-22T05:44:34.578Z,36.93
2017-11-22T05:45:43.686Z,36.64
2017-11-22T05:46:52.667Z,36.07
2017-11-22T05:48:01.493Z,36.45
2017-11-22T05:49:10.881Z,36.35
2017-11-22T05:50:19.711Z,36.35
2017-11-22T05:51:28.816Z,36.45
2017-11-22T05:52:37.697Z,36.35
2017-11-22T05:53:46.529Z,36.16
2017-11-22T05:54:55.356Z,36.26
2017-11-22T05:56:04.186Z,36.35
2017-11-22T05:57:13.014Z,36.26
2017-11-22T05:58:21.898Z,36.66
2017-11-22T05:59:30.727Z,36.55
2017-11-22T06:00:39.557Z,36.45
2017-11-22T06:01:48.386Z,36.37
2017-11-22T06:02:57.221Z,36.26
2017-11-22T06:04:06.053Z,35.88
2017-11-22T06:05:14.883Z,36.57
2017-11-22T06:06:23.714Z,36.66
2017-11-22T06:07:32.545Z,36.66
2017-11-22T06:08:41.376Z,36.55
2017-11-22T06:09:50.355Z,36.47
2017-11-22T06:10:59.186Z,36.18
2017-11-22T06:12:08.015Z,35.89
2017-11-22T06:13:16.844Z,36.47
2017-11-22T06:14:25.674Z,36.26
2017-11-22T06:15:34.604Z,36.35
2017-11-22T06:16:43.434Z,36.26
2017-11-22T06:17:52.263Z,35.61
2017-11-22T06:19:01.091Z,35.99
2017-11-22T06:20:09.923Z,36.26
2017-11-22T06:21:18.757Z,36.18
2017-11-22T06:22:27.591Z,35.8
2017-11-22T06:23:36.415Z,35.42
2017-11-22T06:24:45.246Z,35.33
2017-11-22T06:25:54.076Z,35.6
2017-11-22T06:27:03.197Z,35.69
2017-11-22T06:28:12.308Z,35.52
2017-11-22T06:29:21.145Z,35.71
2017-11-22T06:30:29.978Z,35.8
2017-11-22T06:31:38.808Z,35.52
2017-11-22T06:32:47.659Z,35.4
2017-11-22T06:33:56.471Z,34.75
2017-11-22T06:35:05.302Z,35.21
2017-11-22T06:36:14.134Z,35.31
2017-11-22T06:37:23.025Z,34.66
2017-11-22T06:38:32.063Z,35.23
2017-11-22T06:39:40.991Z,34.75
2017-11-22T06:40:50.076Z,34.66
2017-11-22T06:41:58.924Z,35.23
2017-11-22T06:43:07.790Z,35.33
2017-11-22T06:44:16.618Z,35.33
2017-11-22T06:45:25.449Z,35.33
2017-11-22T06:46:34.283Z,35.42
2017-11-22T06:47:43.114Z,35.52
2017-11-22T06:48:51.949Z,35.71
2017-11-22T06:50:00.786Z,35.71
2017-11-22T06:51:09.610Z,35.61
2017-11-22T06:52:18.441Z,35.33
2017-11-22T06:53:27.274Z,35.71
2017-11-22T06:54:36.106Z,34.94
2017-11-22T06:55:44.939Z,36.47
2017-11-22T06:56:53.768Z,36.28
2017-11-22T06:58:02.699Z,35.71
2017-11-22T06:59:11.530Z,36.37
2017-11-22T07:00:20.370Z,36.08
2017-11-22T07:01:29.481Z,36.37
2017-11-22T07:02:38.309Z,36.47
2017-11-22T07:03:47.172Z,36.57
2017-11-22T07:04:56.004Z,36.57
2017-11-22T07:06:04.861Z,36.47
2017-11-22T07:07:13.697Z,36.47
2017-11-22T07:08:22.524Z,36.37
2017-11-22T07:09:31.456Z,35.99
2017-11-22T07:10:40.436Z,36.37
2017-11-22T07:11:49.267Z,36.76
2017-11-22T07:12:58.099Z,36.47
2017-11-22T07:14:06.931Z,36.37
2017-11-22T07:15:16.066Z,36.37
2017-11-22T07:16:24.903Z,36.57
2017-11-22T07:17:33.728Z,37.32
2017-11-22T07:18:42.559Z,36.85
2017-11-22T07:19:51.389Z,36.85
2017-11-22T07:21:00.500Z,36.66
2017-11-22T07:22:09.328Z,36.66
2017-11-22T07:23:18.161Z,36.76
2017-11-22T07:24:26.992Z,37.13
2017-11-22T07:25:35.921Z,36.85
2017-11-22T07:26:44.752Z,37.04
2017-11-22T07:27:53.583Z,36.85
2017-11-22T07:29:02.691Z,36.94
2017-11-22T07:30:11.524Z,36.57
2017-11-22T07:31:20.355Z,37.04
2017-11-22T07:32:29.467Z,37.13
2017-11-22T07:33:38.587Z,37.23
2017-11-22T07:34:47.412Z,37.04
2017-11-22T07:35:56.245Z,36.94
2017-11-22T07:37:05.082Z,36.94
2017-11-22T07:38:13.913Z,36.94
2017-11-22T07:39:22.747Z,36.85
2017-11-22T07:40:31.577Z,36.57
2017-11-22T07:41:40.413Z,36.85
2017-11-22T07:42:49.245Z,36.94
2017-11-22T07:43:58.079Z,37.32
2017-11-22T07:45:06.911Z,36.66
2017-11-22T07:46:15.842Z,37.04
2017-11-22T07:47:24.678Z,36.94
2017-11-22T07:48:34.346Z,37.13
2017-11-22T07:49:43.467Z,37.04
2017-11-22T07:50:52.303Z,37.04
2017-11-22T07:52:01.278Z,36.94
2017-11-22T07:53:10.109Z,37.04
2017-11-22T07:54:18.941Z,36.57
2017-11-22T07:55:27.772Z,36.76
2017-11-22T07:56:36.604Z,36.85
2017-11-22T07:57:45.595Z,37.04
2017-11-22T07:58:54.420Z,36.47
2017-11-22T08:00:03.247Z,36.94
2017-11-22T08:01:12.079Z,36.94
2017-11-22T08:02:20.910Z,36.85
2017-11-22T08:03:30.024Z,36.85
2017-11-22T08:04:38.853Z,37.13
2017-11-22T08:05:47.684Z,38.09
2017-11-22T08:06:56.515Z,38.09
2017-11-22T08:08:05.348Z,38.47
2017-11-22T08:09:14.517Z,38.85
2017-11-22T08:10:23.347Z,39.23
2017-11-22T08:11:32.177Z,39.04
2017-11-22T08:12:41.006Z,39.99
2017-11-22T08:13:49.839Z,40.47
2017-11-22T08:14:58.871Z,39.99
2017-11-22T08:16:07.702Z,40.18
2017-11-22T08:17:16.529Z,40.56
2017-11-22T08:18:25.360Z,40.09
2017-11-22T08:19:34.192Z,41.33
2017-11-22T08:20:43.170Z,42.28
2017-11-22T08:21:52.001Z,43.23
2017-11-22T08:23:00.830Z,43.71
2017-11-22T08:24:09.664Z,44.94
2017-11-22T08:25:18.494Z,45.14
2017-11-22T08:26:27.325Z,45.42
2017-11-22T08:27:36.156Z,45.04
2017-11-22T08:28:44.985Z,45.42
2017-11-22T08:29:53.815Z,45.32
2017-11-22T08:31:02.646Z,45.23
2017-11-22T08:32:11.528Z,45.7
2017-11-22T08:33:20.360Z,46.18
2017-11-22T08:34:29.192Z,45.89
2017-11-22T08:35:38.025Z,46.18
2017-11-22T08:36:46.856Z,47.13
2017-11-22T08:37:55.836Z,47.63
2017-11-22T08:39:04.667Z,46.94
2017-11-22T08:40:13.499Z,47.63
2017-11-22T08:41:22.331Z,48.02
2017-11-22T08:42:31.443Z,47.32
2017-11-22T08:43:40.330Z,48.97
2017-11-22T08:44:49.158Z,50.68
2017-11-22T08:45:57.997Z,51.45
2017-11-22T08:47:07.419Z,53.54
2017-11-22T08:48:16.519Z,54.49
2017-11-22T08:49:25.501Z,54.68
2017-11-22T08:50:34.333Z,55.07
2017-11-22T08:51:43.163Z,54.49
2017-11-22T08:52:51.994Z,55.07
2017-11-22T08:54:00.826Z,56.59
2017-11-22T08:55:09.958Z,58.21
2017-11-22T08:56:18.791Z,59.35
2017-11-22T08:57:27.619Z,58.11
2017-11-22T08:58:36.453Z,58.3
2017-11-22T08:59:45.286Z,58.02
2017-11-22T09:00:54.270Z,59.54
2017-11-22T09:02:03.104Z,59.92
2017-11-22T09:03:11.935Z,60.4
2017-11-22T09:04:20.771Z,60.78
2017-11-22T09:05:29.603Z,60.69
2017-11-22T09:06:38.484Z,60.3
2017-11-22T09:07:47.319Z,58.78
2017-11-22T09:08:56.149Z,60.11
2017-11-22T09:10:04.980Z,59.45
2017-11-22T09:11:13.808Z,59.45
2017-11-22T09:12:22.791Z,58.3
2017-11-22T09:13:31.636Z,58.4
2017-11-22T09:14:40.456Z,56.97
2017-11-22T09:15:49.287Z,56.78
2017-11-22T09:16:58.118Z,56.3
2017-11-22T09:18:07.013Z,56.11
2017-11-22T09:19:15.828Z,56.11
2017-11-22T09:20:24.662Z,56.3
2017-11-22T09:21:33.493Z,55.63
2017-11-22T09:22:42.326Z,55.83
2017-11-22T09:23:51.306Z,55.73
2017-11-22T09:25:00.139Z,55.54
2017-11-22T09:26:08.968Z,55.04
2017-11-22T09:27:17.797Z,55.42
2017-11-22T09:28:26.630Z,55.22
2017-11-22T09:29:35.609Z,54.85
2017-11-22T09:30:44.439Z,54.37
2017-11-22T09:31:53.546Z,54.68
2017-11-22T09:33:02.379Z,54.37
2017-11-22T09:34:11.211Z,54.3
2017-11-22T09:35:20.328Z,54.56
2017-11-22T09:36:29.156Z,53.99
2017-11-22T09:37:37.986Z,54.3
2017-11-22T09:38:47.109Z,54.27
2017-11-22T09:39:55.939Z,54.37
2017-11-22T09:41:04.920Z,54.18
2017-11-22T09:42:13.754Z,54.27
2017-11-22T09:43:22.587Z,54.11
2017-11-22T09:44:31.416Z,54.3
2017-11-22T09:45:40.531Z,54.94
2017-11-22T09:46:49.416Z,53.8
2017-11-22T09:47:58.238Z,54.88
2017-11-22T09:49:07.072Z,54.56
2017-11-22T09:50:15.905Z,54.78
2017-11-22T09:51:24.740Z,54.59
2017-11-22T09:52:33.878Z,54.02
2017-11-22T09:53:42.701Z,54.21
2017-11-22T09:54:51.532Z,54.27
2017-11-22T09:56:00.362Z,54.37
2017-11-22T09:57:09.471Z,54.18
2017-11-22T09:58:18.463Z,54.18
2017-11-22T09:59:27.285Z,53.8
2017-11-22T10:00:36.121Z,53.52
2017-11-22T10:01:44.948Z,53.13
2017-11-22T10:02:53.780Z,53.23
2017-11-22T10:04:02.889Z,52.28
2017-11-22T10:05:11.719Z,52.28
2017-11-22T10:06:20.551Z,52.4
2017-11-22T10:07:29.381Z,52.18
2017-11-22T10:08:38.213Z,52.47
2017-11-22T10:09:47.146Z,52.68
2017-11-22T10:10:55.978Z,52.84
2017-11-22T10:12:04.808Z,52.59
2017-11-22T10:13:13.637Z,52.49
2017-11-22T10:14:22.469Z,52.49
2017-11-22T10:15:31.301Z,53.13
2017-11-22T10:16:40.131Z,53.06
2017-11-22T10:17:48.967Z,53.64
2017-11-22T10:18:57.791Z,53.25
2017-11-22T10:20:06.622Z,54.39
2017-11-22T10:21:15.863Z,54.49
2017-11-22T10:22:24.692Z,54.02
2017-11-22T10:23:33.525Z,53.54
2017-11-22T10:24:42.634Z,55.35
2017-11-22T10:25:51.463Z,56.11
2017-11-22T10:27:00.495Z,55.92
2017-11-22T10:28:09.325Z,56.4
2017-11-22T10:29:18.156Z,56.87
2017-11-22T10:30:26.991Z,58.4
2017-11-22T10:31:36.097Z,58.87
2017-11-22T10:32:44.977Z,58.3
2017-11-22T10:33:53.807Z,58.78
2017-11-22T10:35:02.642Z,57.35
2017-11-22T10:36:11.473Z,57.73
2017-11-22T10:37:20.303Z,57.73
2017-11-22T10:38:29.133Z,58.4
2017-11-22T10:39:37.965Z,57.73
2017-11-22T10:40:46.793Z,58.02
2017-11-22T10:41:55.628Z,58.11
2017-11-22T10:43:04.453Z,57.92
2017-11-22T10:44:13.686Z,57.92
2017-11-22T10:45:22.517Z,57.73
2017-11-22T10:46:31.348Z,57.26
2017-11-22T10:47:40.181Z,56.68
2017-11-22T10:48:49.013Z,56.97
2017-11-22T10:49:57.898Z,56.11
2017-11-22T10:51:06.727Z,55.54
2017-11-22T10:52:15.832Z,56.3
2017-11-22T10:53:24.663Z,56.21
2017-11-22T10:54:33.493Z,56.11
2017-11-22T10:55:42.322Z,56.3
2017-11-22T10:56:51.168Z,56.02
2017-11-22T10:58:00.066Z,55.63
2017-11-22T10:59:09.235Z,56.49
2017-11-22T11:00:18.115Z,55.83
2017-11-22T11:01:27.126Z,55.73
2017-11-22T11:02:35.987Z,56.11
2017-11-22T11:03:44.848Z,57.07
2017-11-22T11:04:53.712Z,57.82
2017-11-22T11:06:02.572Z,57.26
2017-11-22T11:07:11.813Z,56.97
2017-11-22T11:08:20.953Z,57.92
2017-11-22T11:09:29.815Z,58.69
2017-11-22T11:10:38.674Z,58.87
2017-11-22T11:11:47.537Z,60.02
2017-11-22T11:12:56.448Z,60.02
2017-11-22T11:14:05.309Z,59.74
2017-11-22T11:15:14.451Z,59.45
2017-11-22T11:16:23.312Z,60.11
2017-11-22T11:17:32.172Z,59.92
2017-11-22T11:18:41.133Z,61.83
2017-11-22T11:19:50.274Z,61.73
2017-11-22T11:20:59.136Z,61.45
2017-11-22T11:22:07.995Z,61.45
2017-11-22T11:23:16.856Z,62.3
2017-11-22T11:24:25.772Z,60.88
2017-11-22T11:25:34.911Z,63.83
2017-11-22T11:26:43.777Z,62.97
2017-11-22T11:27:52.631Z,65.45
2017-11-22T11:29:01.490Z,69.74
2017-11-22T11:30:10.401Z,71.17
2017-11-22T11:31:19.263Z,71.93
2017-11-22T11:32:28.125Z,74.88
2017-11-22T11:33:36.986Z,73.45
2017-11-22T11:34:45.846Z,75.36
2017-11-22T11:35:54.709Z,74.79
2017-11-22T11:37:03.849Z,76.21
2017-11-22T11:38:12.710Z,76.98
2017-11-22T11:39:21.568Z,76.98
2017-11-22T11:40:30.426Z,77.36
2017-11-22T11:41:39.722Z,77.55
2017-11-22T11:42:48.583Z,80.69
2017-11-22T11:43:57.445Z,81.07
2017-11-22T11:45:06.306Z,80.02
2017-11-22T11:46:15.169Z,82.79
2017-11-22T11:47:24.426Z,83.88
2017-11-22T11:48:33.288Z,84.31
2017-11-22T11:49:42.154Z,85.78
2017-11-22T11:50:51.011Z,85.27
2017-11-22T11:51:59.874Z,87.31
2017-11-22T11:53:09.017Z,88.36
2017-11-22T11:54:18.168Z,91.31
2017-11-22T11:55:27.027Z,90.64
2017-11-22T11:56:35.889Z,90.74
2017-11-22T11:57:44.747Z,90.84
2017-11-22T11:58:53.759Z,94.46
2017-11-22T12:00:02.619Z,95.41
2017-11-22T12:01:11.482Z,96.08
2017-11-22T12:02:20.342Z,95.51
2017-11-22T12:03:29.203Z,97.8
2017-11-22T12:04:38.369Z,96.56
2017-11-22T12:05:47.509Z,97.7
2017-11-22T12:06:56.663Z,97.8
2017-11-22T12:08:05.523Z,96.56
2017-11-22T12:09:14.386Z,98.56
2017-11-22T12:10:23.248Z,99.32
2017-11-22T12:11:32.111Z,99.7
2017-11-22T12:12:40.972Z,99.99
2017-11-22T12:13:49.834Z,99.99
2017-11-22T12:14:58.797Z,99.99
2017-11-22T12:16:07.808Z,99.99
2017-11-22T12:17:16.672Z,99.99
2017-11-22T12:18:25.531Z,99.99
2017-11-22T12:19:34.393Z,99.99
2017-11-22T12:20:43.539Z,99.99
2017-11-22T12:21:52.650Z,99.99
2017-11-22T12:23:01.512Z,99.99
2017-11-22T12:24:10.379Z,99.99
2017-11-22T12:25:19.241Z,99.99
2017-11-22T12:26:28.106Z,99.99
2017-11-22T12:27:37.298Z,99.99
2017-11-22T12:28:46.461Z,99.99
2017-11-22T12:29:55.323Z,99.99
2017-11-22T12:31:04.183Z,99.99
2017-11-22T12:32:13.042Z,99.99
2017-11-22T12:33:22.204Z,99.99
2017-11-22T12:34:31.346Z,99.99
2017-11-22T12:35:40.206Z,99.99
2017-11-22T12:36:49.071Z,99.99
2017-11-22T12:37:57.952Z,99.99
2017-11-22T12:39:06.938Z,99.99
2017-11-22T12:40:15.801Z,99.99
2017-11-22T12:41:24.677Z,99.99
2017-11-22T12:42:33.808Z,99.99
2017-11-22T12:43:42.668Z,99.99
2017-11-22T12:44:51.632Z,99.99
2017-11-22T12:46:00.492Z,99.99
2017-11-22T12:47:09.358Z,99.99
2017-11-22T12:48:18.217Z,99.99
2017-11-22T12:49:27.077Z,99.99
2017-11-22T12:50:35.939Z,99.99
2017-11-22T12:51:44.804Z,99.99
2017-11-22T12:52:53.665Z,99.99
2017-11-22T12:54:02.810Z,99.99
2017-11-22T12:55:11.671Z,99.99
2017-11-22T12:56:20.910Z,99.99
2017-11-22T12:57:29.774Z,99.99
2017-11-22T12:58:38.635Z,99.99
2017-11-22T12:59:47.493Z,99.99
2017-11-22T13:00:56.357Z,99.99
2017-11-22T13:02:05.468Z,99.99
2017-11-22T13:03:14.329Z,99.99
2017-11-22T13:04:23.191Z,99.99
2017-11-22T13:05:32.052Z,99.99
2017-11-22T13:06:40.915Z,99.99
2017-11-22T13:07:50.176Z,99.99
2017-11-22T13:08:59.088Z,99.99
2017-11-22T13:10:07.950Z,99.99
2017-11-22T13:11:16.812Z,99.99
2017-11-22T13:12:25.673Z,99.99
2017-11-22T13:13:34.536Z,99.99
2017-11-22T13:14:43.394Z,99.99
2017-11-22T13:15:52.536Z,99.99
2017-11-22T13:17:01.397Z,99.99
2017-11-22T13:18:10.257Z,99.99
2017-11-22T13:19:19.169Z,99.99
2017-11-22T13:20:28.030Z,99.99
2017-11-22T13:21:36.891Z,99.99
2017-11-22T13:22:45.754Z,99.99
2017-11-22T13:23:54.634Z,99.99
2017-11-22T13:25:03.525Z,99.99
2017-11-22T13:26:12.386Z,99.99
2017-11-22T13:27:21.246Z,99.99
2017-11-22T13:28:30.108Z,99.99
2017-11-22T13:29:38.970Z,99.99
2017-11-22T13:30:47.884Z,99.99
2017-11-22T13:31:56.744Z,99.99
2017-11-22T13:33:05.605Z,99.99
2017-11-22T13:34:14.745Z,99.99
2017-11-22T13:35:23.607Z,99.99
2017-11-22T13:36:32.765Z,99.99
2017-11-22T13:37:41.925Z,99.99
2017-11-22T13:38:50.785Z,99.99
2017-11-22T13:39:59.645Z,99.99
2017-11-22T13:41:08.506Z,99.99
2017-11-22T13:42:17.621Z,99.99
2017-11-22T13:43:26.762Z,99.99
2017-11-22T13:44:35.627Z,99.99
2017-11-22T13:45:44.487Z,99.99
2017-11-22T13:46:53.349Z,99.99
2017-11-22T13:48:02.309Z,99.99
2017-11-22T13:49:11.176Z,99.99
2017-11-22T13:50:20.045Z,99.99
2017-11-22T13:51:28.913Z,99.99
2017-11-22T13:52:37.785Z,99.99
2017-11-22T13:53:46.656Z,99.99
2017-11-22T13:54:55.530Z,99.99
2017-11-22T13:56:04.992Z,99.99
2017-11-22T13:57:13.858Z,99.99
2017-11-22T13:58:22.731Z,99.99
2017-11-22T13:59:31.885Z,99.99
2017-11-22T14:00:40.747Z,99.99
2017-11-22T14:01:49.610Z,99.99
2017-11-22T14:02:58.468Z,99.99
2017-11-22T14:04:07.334Z,99.99
2017-11-22T14:05:16.348Z,99.99
2017-11-22T14:06:25.210Z,99.99
2017-11-22T14:07:34.070Z,99.99
2017-11-22T14:08:42.934Z,99.99
2017-11-22T14:09:51.795Z,99.99
2017-11-22T14:11:00.658Z,99.99
2017-11-22T14:12:09.519Z,99.99
2017-11-22T14:13:18.381Z,99.99
2017-11-22T14:14:27.243Z,99.99
2017-11-22T14:15:36.130Z,99.99
2017-11-22T14:16:44.993Z,99.99
2017-11-22T14:17:53.859Z,99.99
2017-11-22T14:19:02.721Z,99.99
2017-11-22T14:20:11.583Z,99.99
2017-11-22T14:21:20.726Z,99.99
2017-11-22T14:22:29.738Z,99.99
2017-11-22T14:23:38.599Z,99.99
2017-11-22T14:24:47.460Z,99.99
2017-11-22T14:25:56.610Z,99.99
2017-11-22T14:27:05.478Z,99.99
2017-11-22T14:28:14.732Z,99.99
2017-11-22T14:29:23.598Z,99.99
2017-11-22T14:30:32.745Z,99.99
2017-11-22T14:31:41.611Z,99.99
2017-11-22T14:32:50.470Z,99.99
2017-11-22T14:33:59.483Z,99.99
2017-11-22T14:35:08.633Z,99.99
2017-11-22T14:36:17.493Z,99.99
2017-11-22T14:37:26.356Z,99.99
2017-11-22T14:38:35.219Z,99.99
2017-11-22T14:39:44.228Z,99.99
2017-11-22T14:40:53.091Z,99.99
2017-11-22T14:42:02.058Z,99.99
2017-11-22T14:43:10.919Z,99.99
2017-11-22T14:44:19.782Z,99.99
2017-11-22T14:45:28.696Z,99.99
2017-11-22T14:46:37.557Z,99.99
2017-11-22T14:47:46.421Z,99.99
2017-11-22T14:48:55.283Z,99.99